sensor_id;sensor_type;location;lat;lon;timestamp;temperature;humidity
18506;DHT22;9382;53.242;10.438;2023-01-15T00:00:32;7.30;99.90
18506;DHT22;9382;53.242;10.438;2023-01-15T00:03:00;7.20;99.90
18506;DHT22;9382;53.242;10.438;2023-01-15T00:05:27;7.20;99.90
18506;DHT22;9382;53.242;10.438;2023-01-15T00:07:54;7.10;99.90
18506;DHT22;9382;53.242;10.438;2023-01-15T00:10:20;7.10;99.90
18506;DHT22;9382;53.242;10.438;2023-01-15T00:12:47;7.00;99.90
18506;DHT22;9382;53.242;10.438;2023-01-15T00:15:14;7.10;99.90
18506;DHT22;9382;53.242;10.438;2023-01-15T00:17:41;7.00;99.90
18506;DHT22;9382;53.242;10.438;2023-01-15T00:20:10;7.00;99.90
18506;DHT22;9382;53.242;10.438;2023-01-15T00:22:37;7.00;99.90
18506;DHT22;9382;53.242;10.438;2023-01-15T00:25:04;7.00;99.90
18506;DHT22;9382;53.242;10.438;2023-01-15T00:27:49;6.90;99.90
18506;DHT22;9382;53.242;10.438;2023-01-15T00:30:16;6.90;99.90
18506;DHT22;9382;53.242;10.438;2023-01-15T00:32:44;6.90;99.90
18506;DHT22;9382;53.242;10.438;2023-01-15T00:35:13;7.00;99.90
18506;DHT22;9382;53.242;10.438;2023-01-15T00:37:40;6.90;99.90
18506;DHT22;9382;53.242;10.438;2023-01-15T00:40:08;6.80;99.90
18506;DHT22;9382;53.242;10.438;2023-01-15T00:42:35;6.80;99.90
18506;DHT22;9382;53.242;10.438;2023-01-15T00:45:02;6.80;99.90
18506;DHT22;9382;53.242;10.438;2023-01-15T00:47:34;6.70;99.90
18506;DHT22;9382;53.242;10.438;2023-01-15T00:50:01;6.70;99.90
18506;DHT22;9382;53.242;10.438;2023-01-15T00:52:29;6.70;99.90
18506;DHT22;9382;53.242;10.438;2023-01-15T00:54:56;6.60;99.90
18506;DHT22;9382;53.242;10.438;2023-01-15T00:57:23;6.60;99.90
18506;DHT22;9382;53.242;10.438;2023-01-15T00:59:49;6.60;99.90
18506;DHT22;9382;53.242;10.438;2023-01-15T01:02:16;6.50;99.90
18506;DHT22;9382;53.242;10.438;2023-01-15T01:04:43;6.50;99.90
18506;DHT22;9382;53.242;10.438;2023-01-15T01:07:10;6.50;99.90
18506;DHT22;9382;53.242;10.438;2023-01-15T01:09:38;6.50;99.90
18506;DHT22;9382;53.242;10.438;2023-01-15T01:12:05;6.50;99.90
18506;DHT22;9382;53.242;10.438;2023-01-15T01:14:32;6.50;99.90
18506;DHT22;9382;53.242;10.438;2023-01-15T01:16:59;6.50;99.90
18506;DHT22;9382;53.242;10.438;2023-01-15T01:19:25;6.50;99.90
18506;DHT22;9382;53.242;10.438;2023-01-15T01:21:53;6.50;99.90
18506;DHT22;9382;53.242;10.438;2023-01-15T01:24:21;6.50;99.90
18506;DHT22;9382;53.242;10.438;2023-01-15T01:26:50;6.50;99.90
18506;DHT22;9382;53.242;10.438;2023-01-15T01:29:19;6.50;99.90
18506;DHT22;9382;53.242;10.438;2023-01-15T01:31:46;6.50;99.90
18506;DHT22;9382;53.242;10.438;2023-01-15T01:34:13;6.60;99.90
18506;DHT22;9382;53.242;10.438;2023-01-15T01:36:42;6.60;99.90
18506;DHT22;9382;53.242;10.438;2023-01-15T01:39:13;6.60;99.90
18506;DHT22;9382;53.242;10.438;2023-01-15T01:41:39;6.60;99.90
18506;DHT22;9382;53.242;10.438;2023-01-15T01:47:16;6.60;99.90
18506;DHT22;9382;53.242;10.438;2023-01-15T01:49:48;6.70;99.90
18506;DHT22;9382;53.242;10.438;2023-01-15T01:52:19;6.60;99.90
18506;DHT22;9382;53.242;10.438;2023-01-15T01:54:48;6.60;99.90
18506;DHT22;9382;53.242;10.438;2023-01-15T01:57:16;6.60;99.90
18506;DHT22;9382;53.242;10.438;2023-01-15T01:59:44;6.60;99.90
18506;DHT22;9382;53.242;10.438;2023-01-15T02:02:11;6.60;99.90
18506;DHT22;9382;53.242;10.438;2023-01-15T02:04:40;6.60;99.90
18506;DHT22;9382;53.242;10.438;2023-01-15T02:07:07;6.60;99.90
18506;DHT22;9382;53.242;10.438;2023-01-15T02:09:34;6.60;99.90
18506;DHT22;9382;53.242;10.438;2023-01-15T02:12:07;6.60;99.90
18506;DHT22;9382;53.242;10.438;2023-01-15T02:14:38;6.60;99.90
18506;DHT22;9382;53.242;10.438;2023-01-15T02:17:13;6.60;99.90
18506;DHT22;9382;53.242;10.438;2023-01-15T02:19:48;6.60;99.90
18506;DHT22;9382;53.242;10.438;2023-01-15T02:22:26;6.60;99.90
18506;DHT22;9382;53.242;10.438;2023-01-15T02:25:03;6.60;99.90
18506;DHT22;9382;53.242;10.438;2023-01-15T02:27:34;6.60;99.90
18506;DHT22;9382;53.242;10.438;2023-01-15T02:30:07;6.60;99.90
18506;DHT22;9382;53.242;10.438;2023-01-15T02:32:39;6.60;99.90
18506;DHT22;9382;53.242;10.438;2023-01-15T02:35:12;6.60;99.90
18506;DHT22;9382;53.242;10.438;2023-01-15T02:37:44;6.60;99.90
18506;DHT22;9382;53.242;10.438;2023-01-15T02:40:13;6.60;99.90
18506;DHT22;9382;53.242;10.438;2023-01-15T02:42:43;6.60;99.90
18506;DHT22;9382;53.242;10.438;2023-01-15T02:45:12;6.60;99.90
18506;DHT22;9382;53.242;10.438;2023-01-15T02:47:41;6.50;99.90
18506;DHT22;9382;53.242;10.438;2023-01-15T02:50:13;6.50;99.90
18506;DHT22;9382;53.242;10.438;2023-01-15T02:52:43;6.50;99.90
18506;DHT22;9382;53.242;10.438;2023-01-15T02:55:15;6.50;99.90
18506;DHT22;9382;53.242;10.438;2023-01-15T02:57:46;6.50;99.90
18506;DHT22;9382;53.242;10.438;2023-01-15T03:00:14;6.50;99.90
18506;DHT22;9382;53.242;10.438;2023-01-15T03:02:46;6.50;99.90
18506;DHT22;9382;53.242;10.438;2023-01-15T03:05:17;6.60;99.90
18506;DHT22;9382;53.242;10.438;2023-01-15T03:07:50;6.60;99.90
18506;DHT22;9382;53.242;10.438;2023-01-15T03:10:18;6.60;99.90
18506;DHT22;9382;53.242;10.438;2023-01-15T03:12:49;6.50;99.90
18506;DHT22;9382;53.242;10.438;2023-01-15T03:15:39;6.60;99.90
18506;DHT22;9382;53.242;10.438;2023-01-15T03:18:28;6.60;99.90
18506;DHT22;9382;53.242;10.438;2023-01-15T03:21:01;6.50;99.90
18506;DHT22;9382;53.242;10.438;2023-01-15T03:23:29;6.50;99.90
18506;DHT22;9382;53.242;10.438;2023-01-15T03:25:56;6.50;99.90
18506;DHT22;9382;53.242;10.438;2023-01-15T03:28:27;6.50;99.90
18506;DHT22;9382;53.242;10.438;2023-01-15T03:30:54;6.50;99.90
18506;DHT22;9382;53.242;10.438;2023-01-15T03:33:21;6.50;99.90
18506;DHT22;9382;53.242;10.438;2023-01-15T03:35:50;6.50;99.90
18506;DHT22;9382;53.242;10.438;2023-01-15T03:38:19;6.50;99.90
18506;DHT22;9382;53.242;10.438;2023-01-15T03:40:52;6.50;99.90
18506;DHT22;9382;53.242;10.438;2023-01-15T03:43:23;6.50;99.90
18506;DHT22;9382;53.242;10.438;2023-01-15T03:46:15;6.60;99.90
18506;DHT22;9382;53.242;10.438;2023-01-15T03:48:50;6.50;99.90
18506;DHT22;9382;53.242;10.438;2023-01-15T03:51:22;6.50;99.90
18506;DHT22;9382;53.242;10.438;2023-01-15T03:53:53;6.60;99.90
18506;DHT22;9382;53.242;10.438;2023-01-15T03:56:30;6.60;99.90
18506;DHT22;9382;53.242;10.438;2023-01-15T03:59:02;6.50;99.90
18506;DHT22;9382;53.242;10.438;2023-01-15T04:01:34;6.50;99.90
18506;DHT22;9382;53.242;10.438;2023-01-15T04:04:03;6.60;99.90
18506;DHT22;9382;53.242;10.438;2023-01-15T04:06:33;6.60;99.90
18506;DHT22;9382;53.242;10.438;2023-01-15T04:09:03;6.60;99.90
18506;DHT22;9382;53.242;10.438;2023-01-15T04:11:31;6.50;99.90
18506;DHT22;9382;53.242;10.438;2023-01-15T04:13:58;6.50;99.90
18506;DHT22;9382;53.242;10.438;2023-01-15T04:16:33;6.40;99.90
18506;DHT22;9382;53.242;10.438;2023-01-15T04:19:00;6.40;99.90
18506;DHT22;9382;53.242;10.438;2023-01-15T04:21:27;6.40;99.90
18506;DHT22;9382;53.242;10.438;2023-01-15T04:23:54;6.30;99.90
18506;DHT22;9382;53.242;10.438;2023-01-15T04:26:20;6.30;99.90
18506;DHT22;9382;53.242;10.438;2023-01-15T04:28:47;6.30;99.90
18506;DHT22;9382;53.242;10.438;2023-01-15T04:31:14;6.30;99.90
18506;DHT22;9382;53.242;10.438;2023-01-15T04:33:42;6.20;99.90
18506;DHT22;9382;53.242;10.438;2023-01-15T04:36:09;6.20;99.90
18506;DHT22;9382;53.242;10.438;2023-01-15T04:38:36;6.10;99.90
18506;DHT22;9382;53.242;10.438;2023-01-15T04:41:04;6.10;99.90
18506;DHT22;9382;53.242;10.438;2023-01-15T04:43:48;6.10;99.90
18506;DHT22;9382;53.242;10.438;2023-01-15T04:46:35;6.10;99.90
18506;DHT22;9382;53.242;10.438;2023-01-15T04:49:04;6.00;99.90
18506;DHT22;9382;53.242;10.438;2023-01-15T04:51:31;6.00;99.90
18506;DHT22;9382;53.242;10.438;2023-01-15T04:53:57;6.00;99.90
18506;DHT22;9382;53.242;10.438;2023-01-15T04:56:27;6.00;99.90
18506;DHT22;9382;53.242;10.438;2023-01-15T04:58:53;6.00;99.90
18506;DHT22;9382;53.242;10.438;2023-01-15T05:01:20;6.00;99.90
18506;DHT22;9382;53.242;10.438;2023-01-15T05:03:47;6.00;99.90
18506;DHT22;9382;53.242;10.438;2023-01-15T05:06:15;6.00;99.90
18506;DHT22;9382;53.242;10.438;2023-01-15T05:08:43;6.00;99.90
18506;DHT22;9382;53.242;10.438;2023-01-15T05:11:09;6.00;99.90
18506;DHT22;9382;53.242;10.438;2023-01-15T05:13:37;6.00;99.90
18506;DHT22;9382;53.242;10.438;2023-01-15T05:16:11;6.00;99.90
18506;DHT22;9382;53.242;10.438;2023-01-15T05:18:39;6.00;99.90
18506;DHT22;9382;53.242;10.438;2023-01-15T05:21:08;6.00;99.90
18506;DHT22;9382;53.242;10.438;2023-01-15T05:23:39;6.00;99.90
18506;DHT22;9382;53.242;10.438;2023-01-15T05:26:06;6.00;99.90
18506;DHT22;9382;53.242;10.438;2023-01-15T05:28:33;6.00;99.90
18506;DHT22;9382;53.242;10.438;2023-01-15T05:31:05;6.00;99.90
18506;DHT22;9382;53.242;10.438;2023-01-15T05:33:33;6.00;99.90
18506;DHT22;9382;53.242;10.438;2023-01-15T05:36:01;6.00;99.90
18506;DHT22;9382;53.242;10.438;2023-01-15T05:38:27;6.00;99.90
18506;DHT22;9382;53.242;10.438;2023-01-15T05:40:55;5.90;99.90
18506;DHT22;9382;53.242;10.438;2023-01-15T05:43:22;5.90;99.90
18506;DHT22;9382;53.242;10.438;2023-01-15T05:45:49;5.90;99.90
18506;DHT22;9382;53.242;10.438;2023-01-15T05:48:16;5.90;99.90
18506;DHT22;9382;53.242;10.438;2023-01-15T05:50:42;5.90;99.90
18506;DHT22;9382;53.242;10.438;2023-01-15T05:53:09;5.80;99.90
18506;DHT22;9382;53.242;10.438;2023-01-15T05:55:36;5.90;99.90
18506;DHT22;9382;53.242;10.438;2023-01-15T05:58:04;5.80;99.90
18506;DHT22;9382;53.242;10.438;2023-01-15T06:00:31;5.80;99.90
18506;DHT22;9382;53.242;10.438;2023-01-15T06:02:57;5.80;99.90
18506;DHT22;9382;53.242;10.438;2023-01-15T06:05:24;5.70;99.90
18506;DHT22;9382;53.242;10.438;2023-01-15T06:07:51;5.70;99.90
18506;DHT22;9382;53.242;10.438;2023-01-15T06:10:18;5.70;99.90
18506;DHT22;9382;53.242;10.438;2023-01-15T06:12:45;5.60;99.90
18506;DHT22;9382;53.242;10.438;2023-01-15T06:15:13;5.50;99.90
18506;DHT22;9382;53.242;10.438;2023-01-15T06:17:39;5.50;99.90
18506;DHT22;9382;53.242;10.438;2023-01-15T06:20:07;5.40;99.90
18506;DHT22;9382;53.242;10.438;2023-01-15T06:22:34;5.40;99.90
18506;DHT22;9382;53.242;10.438;2023-01-15T06:25:03;5.40;99.90
18506;DHT22;9382;53.242;10.438;2023-01-15T06:27:30;5.50;99.90
18506;DHT22;9382;53.242;10.438;2023-01-15T06:29:57;5.50;99.90
18506;DHT22;9382;53.242;10.438;2023-01-15T06:32:26;5.40;99.90
18506;DHT22;9382;53.242;10.438;2023-01-15T06:34:52;5.40;99.90
18506;DHT22;9382;53.242;10.438;2023-01-15T06:37:19;5.40;99.90
18506;DHT22;9382;53.242;10.438;2023-01-15T06:39:46;5.50;99.90
18506;DHT22;9382;53.242;10.438;2023-01-15T06:42:13;5.40;99.90
18506;DHT22;9382;53.242;10.438;2023-01-15T06:44:57;5.40;99.90
18506;DHT22;9382;53.242;10.438;2023-01-15T06:47:42;5.40;99.90
18506;DHT22;9382;53.242;10.438;2023-01-15T06:50:10;5.40;99.90
18506;DHT22;9382;53.242;10.438;2023-01-15T06:52:38;5.40;99.90
18506;DHT22;9382;53.242;10.438;2023-01-15T06:55:05;5.40;99.90
18506;DHT22;9382;53.242;10.438;2023-01-15T06:57:32;5.40;99.90
18506;DHT22;9382;53.242;10.438;2023-01-15T06:59:59;5.40;99.90
18506;DHT22;9382;53.242;10.438;2023-01-15T07:02:26;5.30;99.90
18506;DHT22;9382;53.242;10.438;2023-01-15T07:04:54;5.40;99.90
18506;DHT22;9382;53.242;10.438;2023-01-15T07:07:21;5.30;99.90
18506;DHT22;9382;53.242;10.438;2023-01-15T07:09:48;5.30;99.90
18506;DHT22;9382;53.242;10.438;2023-01-15T07:12:15;5.30;99.90
18506;DHT22;9382;53.242;10.438;2023-01-15T07:14:42;5.30;99.90
18506;DHT22;9382;53.242;10.438;2023-01-15T07:17:09;5.30;99.90
18506;DHT22;9382;53.242;10.438;2023-01-15T07:19:35;5.30;99.90
18506;DHT22;9382;53.242;10.438;2023-01-15T07:22:04;5.30;99.90
18506;DHT22;9382;53.242;10.438;2023-01-15T07:24:31;5.30;99.90
18506;DHT22;9382;53.242;10.438;2023-01-15T07:26:58;5.30;99.90
18506;DHT22;9382;53.242;10.438;2023-01-15T07:29:25;5.30;99.90
18506;DHT22;9382;53.242;10.438;2023-01-15T07:31:52;5.30;99.90
18506;DHT22;9382;53.242;10.438;2023-01-15T07:34:19;5.40;99.90
18506;DHT22;9382;53.242;10.438;2023-01-15T07:36:45;5.40;99.90
18506;DHT22;9382;53.242;10.438;2023-01-15T07:39:14;5.30;99.90
18506;DHT22;9382;53.242;10.438;2023-01-15T07:41:40;5.30;99.90
18506;DHT22;9382;53.242;10.438;2023-01-15T07:44:25;5.40;99.90
18506;DHT22;9382;53.242;10.438;2023-01-15T07:47:16;5.40;99.90
18506;DHT22;9382;53.242;10.438;2023-01-15T07:50:02;5.40;99.90
18506;DHT22;9382;53.242;10.438;2023-01-15T07:52:28;5.40;99.90
18506;DHT22;9382;53.242;10.438;2023-01-15T07:54:57;5.40;99.90
18506;DHT22;9382;53.242;10.438;2023-01-15T07:57:23;5.40;99.90
18506;DHT22;9382;53.242;10.438;2023-01-15T07:59:50;5.40;99.90
18506;DHT22;9382;53.242;10.438;2023-01-15T08:02:17;5.40;99.90
18506;DHT22;9382;53.242;10.438;2023-01-15T08:04:44;5.40;99.90
18506;DHT22;9382;53.242;10.438;2023-01-15T08:07:13;5.40;99.90
18506;DHT22;9382;53.242;10.438;2023-01-15T08:09:40;5.50;99.90
18506;DHT22;9382;53.242;10.438;2023-01-15T08:12:10;5.50;99.90
18506;DHT22;9382;53.242;10.438;2023-01-15T08:14:54;5.50;99.90
18506;DHT22;9382;53.242;10.438;2023-01-15T08:17:40;5.50;99.90
18506;DHT22;9382;53.242;10.438;2023-01-15T08:20:10;5.60;99.90
18506;DHT22;9382;53.242;10.438;2023-01-15T08:22:37;5.60;99.90
18506;DHT22;9382;53.242;10.438;2023-01-15T08:25:06;5.60;99.90
18506;DHT22;9382;53.242;10.438;2023-01-15T08:27:34;5.60;99.90
18506;DHT22;9382;53.242;10.438;2023-01-15T08:30:02;5.60;99.90
18506;DHT22;9382;53.242;10.438;2023-01-15T08:32:29;5.70;99.90
18506;DHT22;9382;53.242;10.438;2023-01-15T08:34:56;5.80;99.90
18506;DHT22;9382;53.242;10.438;2023-01-15T08:37:23;5.80;99.90
18506;DHT22;9382;53.242;10.438;2023-01-15T08:39:49;5.90;99.90
18506;DHT22;9382;53.242;10.438;2023-01-15T08:42:17;6.00;99.90
18506;DHT22;9382;53.242;10.438;2023-01-15T08:44:45;6.00;99.90
18506;DHT22;9382;53.242;10.438;2023-01-15T08:47:13;6.10;99.90
18506;DHT22;9382;53.242;10.438;2023-01-15T08:49:40;6.10;99.90
18506;DHT22;9382;53.242;10.438;2023-01-15T08:52:07;6.20;99.90
18506;DHT22;9382;53.242;10.438;2023-01-15T08:54:33;6.30;99.90
18506;DHT22;9382;53.242;10.438;2023-01-15T08:57:00;6.30;99.90
18506;DHT22;9382;53.242;10.438;2023-01-15T08:59:27;6.40;99.90
18506;DHT22;9382;53.242;10.438;2023-01-15T09:01:55;6.50;99.90
18506;DHT22;9382;53.242;10.438;2023-01-15T09:04:22;6.50;99.90
18506;DHT22;9382;53.242;10.438;2023-01-15T09:06:49;6.60;99.90
18506;DHT22;9382;53.242;10.438;2023-01-15T09:09:15;6.70;99.90
18506;DHT22;9382;53.242;10.438;2023-01-15T09:11:43;6.80;99.90
18506;DHT22;9382;53.242;10.438;2023-01-15T09:14:12;6.80;99.90
18506;DHT22;9382;53.242;10.438;2023-01-15T09:16:39;6.90;99.90
18506;DHT22;9382;53.242;10.438;2023-01-15T09:19:09;7.00;99.90
18506;DHT22;9382;53.242;10.438;2023-01-15T09:21:36;7.00;99.90
18506;DHT22;9382;53.242;10.438;2023-01-15T09:24:03;6.90;99.90
18506;DHT22;9382;53.242;10.438;2023-01-15T09:26:31;6.90;99.90
18506;DHT22;9382;53.242;10.438;2023-01-15T09:28:58;6.80;99.90
18506;DHT22;9382;53.242;10.438;2023-01-15T09:31:26;6.70;99.90
18506;DHT22;9382;53.242;10.438;2023-01-15T09:33:53;6.70;99.90
18506;DHT22;9382;53.242;10.438;2023-01-15T09:36:24;6.80;99.90
18506;DHT22;9382;53.242;10.438;2023-01-15T09:38:52;6.80;99.90
18506;DHT22;9382;53.242;10.438;2023-01-15T09:41:20;6.70;99.90
18506;DHT22;9382;53.242;10.438;2023-01-15T09:44:13;6.60;99.90
18506;DHT22;9382;53.242;10.438;2023-01-15T09:46:52;6.60;99.90
18506;DHT22;9382;53.242;10.438;2023-01-15T09:49:32;6.50;99.90
18506;DHT22;9382;53.242;10.438;2023-01-15T09:52:09;6.40;99.90
18506;DHT22;9382;53.242;10.438;2023-01-15T09:54:47;6.40;99.90
18506;DHT22;9382;53.242;10.438;2023-01-15T09:57:15;6.40;99.90
18506;DHT22;9382;53.242;10.438;2023-01-15T09:59:45;6.50;99.90
18506;DHT22;9382;53.242;10.438;2023-01-15T10:02:20;6.50;99.90
18506;DHT22;9382;53.242;10.438;2023-01-15T10:04:51;6.30;99.90
18506;DHT22;9382;53.242;10.438;2023-01-15T10:07:27;6.20;99.90
18506;DHT22;9382;53.242;10.438;2023-01-15T10:09:59;6.10;99.90
18506;DHT22;9382;53.242;10.438;2023-01-15T10:12:29;5.90;99.90
18506;DHT22;9382;53.242;10.438;2023-01-15T10:15:14;5.90;99.90
18506;DHT22;9382;53.242;10.438;2023-01-15T10:17:42;5.80;99.90
18506;DHT22;9382;53.242;10.438;2023-01-15T10:20:14;5.80;99.90
18506;DHT22;9382;53.242;10.438;2023-01-15T10:23:07;5.80;99.90
18506;DHT22;9382;53.242;10.438;2023-01-15T10:25:38;5.80;99.90
18506;DHT22;9382;53.242;10.438;2023-01-15T10:28:15;5.90;99.90
18506;DHT22;9382;53.242;10.438;2023-01-15T10:30:46;6.00;99.90
18506;DHT22;9382;53.242;10.438;2023-01-15T10:33:31;6.20;99.90
18506;DHT22;9382;53.242;10.438;2023-01-15T10:36:03;6.20;99.90
18506;DHT22;9382;53.242;10.438;2023-01-15T10:38:35;6.30;99.90
18506;DHT22;9382;53.242;10.438;2023-01-15T10:41:14;6.60;99.90
18506;DHT22;9382;53.242;10.438;2023-01-15T10:43:49;6.90;99.90
18506;DHT22;9382;53.242;10.438;2023-01-15T10:46:18;7.00;99.90
18506;DHT22;9382;53.242;10.438;2023-01-15T10:48:48;7.10;99.90
18506;DHT22;9382;53.242;10.438;2023-01-15T10:51:18;6.90;99.90
18506;DHT22;9382;53.242;10.438;2023-01-15T10:53:50;6.80;99.90
18506;DHT22;9382;53.242;10.438;2023-01-15T10:56:27;7.00;99.90
18506;DHT22;9382;53.242;10.438;2023-01-15T10:59:01;7.40;99.90
18506;DHT22;9382;53.242;10.438;2023-01-15T11:01:33;7.60;99.90
18506;DHT22;9382;53.242;10.438;2023-01-15T11:04:00;7.40;99.90
18506;DHT22;9382;53.242;10.438;2023-01-15T11:06:30;7.00;99.90
18506;DHT22;9382;53.242;10.438;2023-01-15T11:08:58;7.00;99.90
18506;DHT22;9382;53.242;10.438;2023-01-15T11:11:28;7.30;99.90
18506;DHT22;9382;53.242;10.438;2023-01-15T11:14:15;7.20;99.90
18506;DHT22;9382;53.242;10.438;2023-01-15T11:17:00;7.20;99.90
18506;DHT22;9382;53.242;10.438;2023-01-15T11:19:44;7.60;99.90
18506;DHT22;9382;53.242;10.438;2023-01-15T11:22:13;8.00;99.90
18506;DHT22;9382;53.242;10.438;2023-01-15T11:24:48;8.30;99.90
18506;DHT22;9382;53.242;10.438;2023-01-15T11:27:17;8.70;99.90
18506;DHT22;9382;53.242;10.438;2023-01-15T11:29:49;8.90;99.90
18506;DHT22;9382;53.242;10.438;2023-01-15T11:32:24;8.90;99.90
18506;DHT22;9382;53.242;10.438;2023-01-15T11:34:53;9.60;99.90
18506;DHT22;9382;53.242;10.438;2023-01-15T11:37:20;10.10;99.90
18506;DHT22;9382;53.242;10.438;2023-01-15T11:39:53;10.40;99.90
18506;DHT22;9382;53.242;10.438;2023-01-15T11:42:21;11.10;99.90
18506;DHT22;9382;53.242;10.438;2023-01-15T11:45:14;11.40;99.90
18506;DHT22;9382;53.242;10.438;2023-01-15T11:47:58;11.50;99.90
18506;DHT22;9382;53.242;10.438;2023-01-15T11:50:49;11.10;99.90
18506;DHT22;9382;53.242;10.438;2023-01-15T11:53:20;11.50;99.90
18506;DHT22;9382;53.242;10.438;2023-01-15T11:55:58;11.40;99.90
18506;DHT22;9382;53.242;10.438;2023-01-15T11:58:27;10.70;99.90
18506;DHT22;9382;53.242;10.438;2023-01-15T12:00:54;10.20;99.90
18506;DHT22;9382;53.242;10.438;2023-01-15T12:03:25;9.80;99.90
18506;DHT22;9382;53.242;10.438;2023-01-15T12:05:56;9.50;99.90
18506;DHT22;9382;53.242;10.438;2023-01-15T12:08:38;9.20;99.90
18506;DHT22;9382;53.242;10.438;2023-01-15T12:11:30;9.50;99.90
18506;DHT22;9382;53.242;10.438;2023-01-15T12:14:12;9.40;99.90
18506;DHT22;9382;53.242;10.438;2023-01-15T12:16:47;9.00;99.90
18506;DHT22;9382;53.242;10.438;2023-01-15T12:19:20;8.50;99.90
18506;DHT22;9382;53.242;10.438;2023-01-15T12:22:16;8.90;99.90
18506;DHT22;9382;53.242;10.438;2023-01-15T12:24:58;9.20;99.90
18506;DHT22;9382;53.242;10.438;2023-01-15T12:27:50;9.00;99.90
18506;DHT22;9382;53.242;10.438;2023-01-15T12:30:23;8.90;99.90
18506;DHT22;9382;53.242;10.438;2023-01-15T12:32:57;9.40;99.90
18506;DHT22;9382;53.242;10.438;2023-01-15T12:35:28;9.60;99.90
18506;DHT22;9382;53.242;10.438;2023-01-15T12:37:57;9.20;99.90
18506;DHT22;9382;53.242;10.438;2023-01-15T12:40:29;8.70;99.90
18506;DHT22;9382;53.242;10.438;2023-01-15T12:43:00;8.20;99.90
18506;DHT22;9382;53.242;10.438;2023-01-15T12:45:45;8.20;99.90
18506;DHT22;9382;53.242;10.438;2023-01-15T12:48:18;8.50;99.90
18506;DHT22;9382;53.242;10.438;2023-01-15T12:50:47;8.50;99.90
18506;DHT22;9382;53.242;10.438;2023-01-15T12:53:19;8.40;99.90
18506;DHT22;9382;53.242;10.438;2023-01-15T12:55:50;8.20;99.90
18506;DHT22;9382;53.242;10.438;2023-01-15T12:58:33;7.90;99.90
18506;DHT22;9382;53.242;10.438;2023-01-15T13:01:07;7.80;99.90
18506;DHT22;9382;53.242;10.438;2023-01-15T13:03:47;7.70;99.90
18506;DHT22;9382;53.242;10.438;2023-01-15T13:06:16;7.60;99.90
18506;DHT22;9382;53.242;10.438;2023-01-15T13:08:49;7.50;99.90
18506;DHT22;9382;53.242;10.438;2023-01-15T13:11:19;7.50;99.90
18506;DHT22;9382;53.242;10.438;2023-01-15T13:13:47;7.70;99.90
18506;DHT22;9382;53.242;10.438;2023-01-15T13:16:34;8.10;99.90
18506;DHT22;9382;53.242;10.438;2023-01-15T13:19:18;8.20;99.90
18506;DHT22;9382;53.242;10.438;2023-01-15T13:21:50;8.10;99.90
18506;DHT22;9382;53.242;10.438;2023-01-15T13:24:26;7.90;99.90
18506;DHT22;9382;53.242;10.438;2023-01-15T13:27:05;7.70;99.90
18506;DHT22;9382;53.242;10.438;2023-01-15T13:29:46;7.60;99.90
18506;DHT22;9382;53.242;10.438;2023-01-15T13:32:19;7.60;99.90
18506;DHT22;9382;53.242;10.438;2023-01-15T13:34:50;7.60;99.90
18506;DHT22;9382;53.242;10.438;2023-01-15T13:37:23;7.60;99.90
18506;DHT22;9382;53.242;10.438;2023-01-15T13:39:56;7.70;99.90
18506;DHT22;9382;53.242;10.438;2023-01-15T13:42:25;7.70;99.90
18506;DHT22;9382;53.242;10.438;2023-01-15T13:47:46;7.50;99.90
18506;DHT22;9382;53.242;10.438;2023-01-15T13:50:15;7.50;99.90
18506;DHT22;9382;53.242;10.438;2023-01-15T13:52:43;7.50;99.90
18506;DHT22;9382;53.242;10.438;2023-01-15T13:55:18;7.50;99.90
18506;DHT22;9382;53.242;10.438;2023-01-15T13:57:46;7.40;99.90
18506;DHT22;9382;53.242;10.438;2023-01-15T14:00:29;7.40;99.90
18506;DHT22;9382;53.242;10.438;2023-01-15T14:02:58;7.30;99.90
18506;DHT22;9382;53.242;10.438;2023-01-15T14:05:30;7.20;99.90
18506;DHT22;9382;53.242;10.438;2023-01-15T14:07:57;7.10;99.90
18506;DHT22;9382;53.242;10.438;2023-01-15T14:10:34;6.70;99.90
18506;DHT22;9382;53.242;10.438;2023-01-15T14:13:20;6.50;99.90
18506;DHT22;9382;53.242;10.438;2023-01-15T14:16:03;6.30;99.90
18506;DHT22;9382;53.242;10.438;2023-01-15T14:18:50;6.30;99.90
18506;DHT22;9382;53.242;10.438;2023-01-15T14:21:28;6.40;99.90
18506;DHT22;9382;53.242;10.438;2023-01-15T14:24:11;6.40;99.90
18506;DHT22;9382;53.242;10.438;2023-01-15T14:26:49;6.50;99.90
18506;DHT22;9382;53.242;10.438;2023-01-15T14:29:42;6.50;99.90
18506;DHT22;9382;53.242;10.438;2023-01-15T14:32:20;6.60;99.90
18506;DHT22;9382;53.242;10.438;2023-01-15T14:34:55;6.60;99.90
18506;DHT22;9382;53.242;10.438;2023-01-15T14:37:25;6.70;99.90
18506;DHT22;9382;53.242;10.438;2023-01-15T14:39:55;6.80;99.90
18506;DHT22;9382;53.242;10.438;2023-01-15T14:42:27;6.90;99.90
18506;DHT22;9382;53.242;10.438;2023-01-15T14:45:23;7.00;99.90
18506;DHT22;9382;53.242;10.438;2023-01-15T14:47:53;7.00;99.90
18506;DHT22;9382;53.242;10.438;2023-01-15T14:50:24;7.10;99.90
18506;DHT22;9382;53.242;10.438;2023-01-15T14:52:53;7.10;99.90
18506;DHT22;9382;53.242;10.438;2023-01-15T14:55:22;7.10;99.90
18506;DHT22;9382;53.242;10.438;2023-01-15T14:57:55;7.10;99.90
18506;DHT22;9382;53.242;10.438;2023-01-15T15:00:23;7.10;99.90
18506;DHT22;9382;53.242;10.438;2023-01-15T15:02:53;7.10;99.90
18506;DHT22;9382;53.242;10.438;2023-01-15T15:05:21;7.00;99.90
18506;DHT22;9382;53.242;10.438;2023-01-15T15:07:50;7.00;99.90
18506;DHT22;9382;53.242;10.438;2023-01-15T15:10:22;7.00;99.90
18506;DHT22;9382;53.242;10.438;2023-01-15T15:12:55;7.10;99.90
18506;DHT22;9382;53.242;10.438;2023-01-15T15:15:36;7.00;99.90
18506;DHT22;9382;53.242;10.438;2023-01-15T15:18:13;7.00;99.90
18506;DHT22;9382;53.242;10.438;2023-01-15T15:20:49;7.00;99.90
18506;DHT22;9382;53.242;10.438;2023-01-15T15:23:23;7.00;99.90
18506;DHT22;9382;53.242;10.438;2023-01-15T15:25:56;7.00;99.90
18506;DHT22;9382;53.242;10.438;2023-01-15T15:28:23;6.90;99.90
18506;DHT22;9382;53.242;10.438;2023-01-15T15:30:51;6.90;99.90
18506;DHT22;9382;53.242;10.438;2023-01-15T15:33:23;7.00;99.90
18506;DHT22;9382;53.242;10.438;2023-01-15T15:35:53;7.00;99.90
18506;DHT22;9382;53.242;10.438;2023-01-15T15:38:22;7.00;99.90
18506;DHT22;9382;53.242;10.438;2023-01-15T15:40:50;7.00;99.90
18506;DHT22;9382;53.242;10.438;2023-01-15T15:43:22;7.00;99.90
18506;DHT22;9382;53.242;10.438;2023-01-15T15:46:22;7.00;99.90
18506;DHT22;9382;53.242;10.438;2023-01-15T15:49:08;7.10;99.90
18506;DHT22;9382;53.242;10.438;2023-01-15T15:51:37;7.10;99.90
18506;DHT22;9382;53.242;10.438;2023-01-15T15:54:10;7.00;99.90
18506;DHT22;9382;53.242;10.438;2023-01-15T15:56:39;7.10;99.90
18506;DHT22;9382;53.242;10.438;2023-01-15T15:59:09;7.10;99.90
18506;DHT22;9382;53.242;10.438;2023-01-15T16:01:40;7.10;99.90
18506;DHT22;9382;53.242;10.438;2023-01-15T16:04:14;7.10;99.90
18506;DHT22;9382;53.242;10.438;2023-01-15T16:06:42;7.00;99.90
18506;DHT22;9382;53.242;10.438;2023-01-15T16:09:09;7.00;99.90
18506;DHT22;9382;53.242;10.438;2023-01-15T16:11:37;7.00;99.90
18506;DHT22;9382;53.242;10.438;2023-01-15T16:14:09;7.00;99.90
18506;DHT22;9382;53.242;10.438;2023-01-15T16:16:40;7.00;99.90